createdAt,value
2019-03-01T00:01:31.317Z,2.63
2019-03-01T00:04:12.053Z,2.59
2019-03-01T00:06:58.066Z,2.99
2019-03-01T00:09:40.460Z,2.59
2019-03-01T00:12:43.755Z,2.17
2019-03-01T00:15:28.878Z,3.07
2019-03-01T00:18:05.577Z,3.91
2019-03-01T00:20:50.735Z,3.12
2019-03-01T00:23:56.891Z,3.36
2019-03-01T00:27:14.912Z,2.87
2019-03-01T00:30:15.566Z,2.87
2019-03-01T00:33:03.570Z,3.38
2019-03-01T00:36:21.072Z,2.78
2019-03-01T00:39:09.599Z,3.32
2019-03-01T00:41:49.066Z,3.55
2019-03-01T00:44:36.174Z,3.14
2019-03-01T00:47:10.221Z,3.11
2019-03-01T00:49:44.151Z,3.00
2019-03-01T00:52:18.246Z,3.62
2019-03-01T00:54:52.240Z,3.75
2019-03-01T00:57:27.621Z,4.43
2019-03-01T01:00:01.598Z,4.18
2019-03-01T01:02:37.118Z,3.95
2019-03-01T01:05:11.319Z,3.95
2019-03-01T01:07:45.309Z,4.10
2019-03-01T01:10:21.538Z,4.36
2019-03-01T01:12:56.942Z,4.73
2019-03-01T01:15:30.895Z,4.56
2019-03-01T01:18:04.970Z,5.43
2019-03-01T01:20:38.844Z,6.05
2019-03-01T01:23:12.805Z,5.70
2019-03-01T01:25:48.894Z,7.00
2019-03-01T01:28:24.277Z,6.86
2019-03-01T01:30:58.249Z,6.96
2019-03-01T01:33:36.766Z,7.07
2019-03-01T01:36:10.804Z,7.27
2019-03-01T01:38:44.823Z,7.65
2019-03-01T01:41:20.256Z,7.14
2019-03-01T01:43:54.138Z,7.50
2019-03-01T01:46:28.089Z,8.14
2019-03-01T01:49:03.528Z,8.00
2019-03-01T01:51:39.018Z,7.81
2019-03-01T01:54:12.922Z,7.34
2019-03-01T01:56:47.647Z,7.51
2019-03-01T01:59:21.605Z,7.34
2019-03-01T02:01:57.247Z,7.53
2019-03-01T02:04:31.185Z,7.68
2019-03-01T02:07:05.826Z,7.80
2019-03-01T02:09:40.309Z,7.85
2019-03-01T02:12:15.804Z,7.88
2019-03-01T02:14:49.930Z,8.22
2019-03-01T02:17:24.072Z,7.80
2019-03-01T02:20:02.327Z,7.95
2019-03-01T02:22:38.381Z,8.73
2019-03-01T02:25:14.927Z,8.39
2019-03-01T02:27:50.254Z,8.19
2019-03-01T02:30:37.898Z,8.66
2019-03-01T02:33:13.483Z,9.06
2019-03-01T02:35:51.232Z,9.62
2019-03-01T02:38:25.228Z,8.41
2019-03-01T02:41:00.665Z,8.90
2019-03-01T02:43:36.416Z,8.49
2019-03-01T02:46:10.358Z,9.18
2019-03-01T02:48:44.507Z,9.78
2019-03-01T02:51:18.516Z,9.26
2019-03-01T02:53:53.976Z,9.20
2019-03-01T02:56:27.986Z,9.62
2019-03-01T02:59:01.957Z,9.62
2019-03-01T03:01:35.902Z,9.40
2019-03-01T03:04:09.886Z,9.40
2019-03-01T03:06:45.510Z,9.93
2019-03-01T03:09:19.825Z,10.19
2019-03-01T03:11:53.812Z,10.10
2019-03-01T03:14:27.776Z,9.97
2019-03-01T03:17:01.967Z,10.18
2019-03-01T03:19:35.966Z,9.91
2019-03-01T03:22:09.828Z,10.14
2019-03-01T03:24:43.884Z,9.80
2019-03-01T03:27:18.890Z,10.02
2019-03-01T03:29:52.869Z,9.89
2019-03-01T03:32:30.208Z,10.62
2019-03-01T03:35:04.262Z,9.74
2019-03-01T03:37:40.192Z,10.07
2019-03-01T03:40:17.860Z,9.83
2019-03-01T03:42:53.397Z,10.33
2019-03-01T03:45:29.382Z,10.80
2019-03-01T03:48:05.098Z,11.03
2019-03-01T03:50:40.683Z,11.35
2019-03-01T03:53:14.347Z,11.03
2019-03-01T03:55:48.911Z,10.90
2019-03-01T03:58:22.748Z,11.21
2019-03-01T04:00:56.534Z,11.44
2019-03-01T04:03:30.380Z,10.84
2019-03-01T04:06:05.385Z,10.76
2019-03-01T04:08:39.336Z,10.77
2019-03-01T04:11:13.065Z,10.83
2019-03-01T04:13:46.727Z,10.98
2019-03-01T04:16:20.394Z,10.77
2019-03-01T04:18:53.842Z,10.55
2019-03-01T04:21:27.550Z,10.64
2019-03-01T04:24:01.333Z,10.21
2019-03-01T04:26:34.749Z,10.62
2019-03-01T04:29:08.633Z,10.24
2019-03-01T04:31:42.288Z,10.57
2019-03-01T04:34:16.023Z,10.53
2019-03-01T04:36:49.726Z,10.43
2019-03-01T04:39:23.168Z,10.15
2019-03-01T04:41:56.737Z,10.58
2019-03-01T04:44:30.254Z,10.78
2019-03-01T04:47:04.183Z,10.88
2019-03-01T04:49:38.074Z,11.13
2019-03-01T04:52:34.594Z,10.42
2019-03-01T04:55:11.835Z,10.63
2019-03-01T04:57:45.348Z,10.52
2019-03-01T05:00:22.026Z,10.46
2019-03-01T05:02:58.545Z,10.62
2019-03-01T05:05:32.359Z,10.42
2019-03-01T05:08:05.896Z,10.54
2019-03-01T05:10:39.474Z,10.48
2019-03-01T05:13:12.964Z,10.90
2019-03-01T05:15:46.524Z,10.78
2019-03-01T05:18:20.021Z,10.71
2019-03-01T05:20:54.456Z,11.37
2019-03-01T05:23:27.995Z,11.10
2019-03-01T05:26:01.427Z,11.18
2019-03-01T05:28:36.121Z,10.98
2019-03-01T05:31:09.534Z,10.98
2019-03-01T05:33:42.883Z,10.99
2019-03-01T05:36:16.274Z,10.90
2019-03-01T05:38:49.814Z,11.01
2019-03-01T05:41:26.023Z,11.06
2019-03-01T05:43:59.373Z,10.84
2019-03-01T05:46:32.889Z,11.01
2019-03-01T05:49:06.291Z,10.53
2019-03-01T05:51:41.337Z,10.72
2019-03-01T05:54:14.613Z,10.81
2019-03-01T05:56:49.389Z,10.83
2019-03-01T05:59:24.435Z,10.67
2019-03-01T06:02:09.173Z,10.76
2019-03-01T06:04:46.729Z,10.65
2019-03-01T06:07:35.367Z,10.86
2019-03-01T06:10:17.523Z,10.67
2019-03-01T06:13:20.026Z,10.89
2019-03-01T06:16:13.827Z,10.87
2019-03-01T06:19:16.205Z,10.59
2019-03-01T06:22:27.893Z,10.77
2019-03-01T06:25:20.313Z,10.67
2019-03-01T06:28:11.438Z,10.61
2019-03-01T06:31:09.076Z,10.60
2019-03-01T06:34:09.537Z,10.83
2019-03-01T06:36:59.840Z,10.56
2019-03-01T06:39:56.741Z,10.45
2019-03-01T06:42:33.404Z,10.36
2019-03-01T06:45:56.405Z,10.66
2019-03-01T06:48:29.718Z,10.50
2019-03-01T06:51:02.965Z,10.34
2019-03-01T06:53:37.275Z,10.32
2019-03-01T06:56:10.773Z,10.15
2019-03-01T06:58:44.202Z,10.25
2019-03-01T07:01:20.256Z,10.46
2019-03-01T07:03:53.498Z,10.23
2019-03-01T07:06:26.921Z,10.33
2019-03-01T07:09:00.189Z,10.41
2019-03-01T07:11:36.729Z,10.10
2019-03-01T07:14:10.128Z,10.13
2019-03-01T07:17:13.813Z,10.30
2019-03-01T07:19:48.678Z,10.22
2019-03-01T07:22:22.104Z,10.21
2019-03-01T07:24:58.911Z,9.97
2019-03-01T07:27:32.462Z,9.92
2019-03-01T07:30:06.900Z,9.82
2019-03-01T07:32:40.337Z,9.77
2019-03-01T07:35:14.118Z,9.73
2019-03-01T07:37:48.459Z,9.80
2019-03-01T07:40:22.060Z,9.56
2019-03-01T07:43:00.152Z,9.64
2019-03-01T07:45:34.463Z,9.63
2019-03-01T07:48:08.102Z,9.73
2019-03-01T07:50:41.567Z,9.82
2019-03-01T07:53:15.229Z,9.65
2019-03-01T07:55:48.505Z,9.72
2019-03-01T07:58:25.256Z,9.71
2019-03-01T08:00:56.517Z,9.56
2019-03-01T08:03:29.766Z,9.68
2019-03-01T08:06:03.168Z,9.70
2019-03-01T08:08:38.812Z,9.62
2019-03-01T08:11:11.250Z,9.48
2019-03-01T08:13:45.059Z,9.29
2019-03-01T08:16:20.083Z,9.46
2019-03-01T08:18:53.151Z,9.23
2019-03-01T08:21:26.502Z,9.20
2019-03-01T08:23:59.856Z,9.23
2019-03-01T08:26:34.939Z,9.07
2019-03-01T08:29:09.637Z,8.96
2019-03-01T08:31:44.589Z,8.84
2019-03-01T08:34:18.659Z,8.82
2019-03-01T08:36:52.005Z,8.75
2019-03-01T08:39:26.672Z,8.77
2019-03-01T08:42:01.405Z,8.65
2019-03-01T08:44:35.913Z,8.67
2019-03-01T08:47:10.781Z,8.58
2019-03-01T08:49:47.104Z,8.54
2019-03-01T08:52:20.663Z,8.43
2019-03-01T08:54:58.829Z,8.40
2019-03-01T08:57:30.204Z,8.38
2019-03-01T09:00:03.560Z,8.34
2019-03-01T09:02:38.328Z,8.15
2019-03-01T09:05:14.814Z,8.17
2019-03-01T09:07:49.746Z,7.98
2019-03-01T09:10:24.633Z,7.89
2019-03-01T09:12:59.200Z,7.88
2019-03-01T09:15:36.776Z,7.72
2019-03-01T09:18:14.583Z,7.54
2019-03-01T09:20:49.645Z,7.42
2019-03-01T09:23:27.388Z,7.53
2019-03-01T09:26:01.024Z,7.49
2019-03-01T09:28:38.520Z,7.35
2019-03-01T09:31:09.753Z,7.21
2019-03-01T09:33:43.890Z,7.16
2019-03-01T09:36:21.352Z,7.08
2019-03-01T09:38:58.307Z,7.14
2019-03-01T09:41:36.654Z,7.04
2019-03-01T09:44:09.128Z,6.73
2019-03-01T09:46:43.970Z,6.76
2019-03-01T09:49:21.419Z,6.73
2019-03-01T09:51:54.182Z,6.68
2019-03-01T09:54:28.315Z,6.57
2019-03-01T09:57:02.590Z,6.48
2019-03-01T09:59:36.283Z,6.48
2019-03-01T10:02:12.304Z,6.25
2019-03-01T10:04:46.114Z,6.33
2019-03-01T10:07:21.006Z,6.20
2019-03-01T10:09:58.234Z,6.15
2019-03-01T10:12:33.113Z,5.96
2019-03-01T10:15:09.115Z,5.89
2019-03-01T10:17:44.103Z,5.71
2019-03-01T10:20:19.292Z,5.68
2019-03-01T10:22:56.596Z,5.35
2019-03-01T10:25:32.660Z,5.35
2019-03-01T10:28:11.289Z,5.19
2019-03-01T10:30:46.488Z,4.96
2019-03-01T10:33:23.963Z,4.82
2019-03-01T10:36:03.216Z,4.74
2019-03-01T10:38:38.344Z,4.65
2019-03-01T10:41:14.702Z,4.65
2019-03-01T10:43:49.146Z,4.52
2019-03-01T10:46:23.612Z,4.20
2019-03-01T10:48:58.272Z,4.30
2019-03-01T10:51:35.837Z,4.14
2019-03-01T10:54:10.285Z,4.00
2019-03-01T10:56:44.437Z,3.96
2019-03-01T10:59:18.761Z,3.83
2019-03-01T11:01:54.869Z,3.86
2019-03-01T11:04:29.433Z,3.65
2019-03-01T11:07:04.616Z,3.69
2019-03-01T11:09:42.314Z,3.55
2019-03-01T11:12:18.245Z,3.57
2019-03-01T11:14:53.362Z,3.47
2019-03-01T11:17:27.841Z,3.36
2019-03-01T11:20:02.231Z,3.22
2019-03-01T11:22:36.616Z,3.15
2019-03-01T11:25:21.607Z,3.10
2019-03-01T11:27:57.356Z,3.01
2019-03-01T11:30:35.461Z,3.04
2019-03-01T11:33:14.665Z,2.97
2019-03-01T11:35:48.670Z,2.87
2019-03-01T11:38:22.792Z,2.78
2019-03-01T11:40:56.668Z,2.65
2019-03-01T11:43:31.770Z,2.56
2019-03-01T11:46:05.603Z,2.48
2019-03-01T11:48:44.168Z,2.44
2019-03-01T11:51:27.848Z,2.52
2019-03-01T11:53:59.298Z,2.43
2019-03-01T11:56:34.577Z,2.30
2019-03-01T11:59:09.768Z,2.39
2019-03-01T12:01:46.993Z,2.41
2019-03-01T12:04:21.733Z,2.33
2019-03-01T12:06:57.572Z,2.16
2019-03-01T12:09:32.612Z,2.19
2019-03-01T12:12:07.311Z,2.06
2019-03-01T12:14:41.015Z,1.99
2019-03-01T12:17:16.420Z,1.98
2019-03-01T12:19:50.102Z,1.91
2019-03-01T12:22:24.053Z,1.82
2019-03-01T12:24:57.474Z,1.70
2019-03-01T12:27:32.744Z,1.81
2019-03-01T12:30:11.508Z,1.74
2019-03-01T12:32:46.395Z,1.67
2019-03-01T12:35:21.151Z,1.56
2019-03-01T12:37:55.430Z,1.59
2019-03-01T12:40:30.889Z,1.45
2019-03-01T12:43:05.354Z,1.34
2019-03-01T12:45:39.658Z,1.28
2019-03-01T12:48:14.236Z,1.27
2019-03-01T12:50:50.371Z,1.39
2019-03-01T12:53:25.390Z,1.31
2019-03-01T12:56:00.247Z,1.13
2019-03-01T12:58:34.732Z,1.17
2019-03-01T13:01:09.250Z,1.24
2019-03-01T13:03:44.641Z,1.18
2019-03-01T13:06:18.872Z,1.12
2019-03-01T13:08:54.829Z,0.98
2019-03-01T13:11:29.672Z,0.94
2019-03-01T13:14:36.768Z,0.91
2019-03-01T13:16:50.487Z,0.69
2019-03-01T13:19:26.102Z,0.68
2019-03-01T13:22:00.105Z,0.75
2019-03-01T13:24:35.127Z,0.68
2019-03-01T13:27:10.825Z,0.73
2019-03-01T13:29:45.672Z,0.57
2019-03-01T13:32:20.036Z,0.75
2019-03-01T13:34:55.358Z,0.73
2019-03-01T13:37:29.942Z,0.77
2019-03-01T13:40:04.615Z,0.62
2019-03-01T13:42:39.087Z,0.57
2019-03-01T13:45:15.994Z,0.62
2019-03-01T13:47:50.967Z,0.62
2019-03-01T13:50:25.287Z,0.51
2019-03-01T13:53:01.935Z,0.45
2019-03-01T13:55:36.711Z,0.41
2019-03-01T13:58:12.407Z,0.26
2019-03-01T14:00:48.756Z,0.28
2019-03-01T14:03:27.481Z,0.20
2019-03-01T14:06:02.144Z,0.18
2019-03-01T14:08:37.492Z,0.21
2019-03-01T14:11:15.150Z,0.24
2019-03-01T14:13:51.135Z,0.15
2019-03-01T14:16:25.468Z,0.17
2019-03-01T14:18:59.889Z,0.07
2019-03-01T14:21:34.727Z,0.03
2019-03-01T14:24:12.763Z,-0.01
2019-03-01T14:26:50.587Z,-0.04
2019-03-01T14:29:24.469Z,0.01
2019-03-01T14:31:58.326Z,-0.08
2019-03-01T14:34:33.505Z,-0.18
2019-03-01T14:37:15.107Z,-0.12
2019-03-01T14:39:50.090Z,-0.08
2019-03-01T14:42:25.461Z,-0.05
2019-03-01T14:45:02.697Z,-0.13
2019-03-01T14:47:37.730Z,-0.05
2019-03-01T14:50:14.992Z,-0.08
2019-03-01T14:52:56.886Z,-0.09
2019-03-01T14:55:32.453Z,-0.09
2019-03-01T14:58:26.052Z,0.06
2019-03-01T15:01:17.747Z,0.04
2019-03-01T15:03:54.711Z,-0.11
2019-03-01T15:06:28.438Z,-0.11
2019-03-01T15:09:03.877Z,-0.11
2019-03-01T15:11:41.204Z,-0.04
2019-03-01T15:14:14.654Z,0.07
2019-03-01T15:16:48.280Z,-0.14
2019-03-01T15:19:24.104Z,-0.32
2019-03-01T15:21:58.194Z,-0.44
2019-03-01T15:24:33.323Z,-0.53
2019-03-01T15:27:06.966Z,-0.65
2019-03-01T15:29:40.642Z,-0.52
2019-03-01T15:32:15.172Z,-0.61
2019-03-01T15:34:51.908Z,-0.68
2019-03-01T15:37:31.023Z,-0.74
2019-03-01T15:40:08.135Z,-0.56
2019-03-01T15:42:43.673Z,-0.66
2019-03-01T15:45:18.801Z,-0.68
2019-03-01T15:47:53.958Z,-0.77
2019-03-01T15:50:29.827Z,-0.83
2019-03-01T15:53:03.941Z,-0.60
2019-03-01T15:55:40.644Z,-0.71
2019-03-01T15:58:15.339Z,-0.73
2019-03-01T16:00:53.450Z,-0.77
2019-03-01T16:03:27.439Z,-0.74
2019-03-01T16:06:02.003Z,-0.91
2019-03-01T16:08:36.924Z,-0.86
2019-03-01T16:11:12.643Z,-0.85
2019-03-01T16:13:49.052Z,-0.79
2019-03-01T16:16:24.598Z,-0.91
2019-03-01T16:18:59.767Z,-0.98
2019-03-01T16:21:36.509Z,-0.98
2019-03-01T16:24:09.265Z,-0.99
2019-03-01T16:26:43.061Z,-1.09
2019-03-01T16:29:17.181Z,-1.12
2019-03-01T16:31:50.845Z,-1.08
2019-03-01T16:34:25.058Z,-1.05
2019-03-01T16:36:58.679Z,-1.16
2019-03-01T16:39:33.732Z,-1.23
2019-03-01T16:42:14.531Z,-1.15
2019-03-01T16:44:47.786Z,-1.20
2019-03-01T16:47:23.269Z,-1.26
2019-03-01T16:49:58.915Z,-1.18
2019-03-01T16:52:33.111Z,-1.36
2019-03-01T16:55:08.253Z,-1.31
2019-03-01T16:57:44.435Z,-1.17
2019-03-01T17:00:24.983Z,-1.25
2019-03-01T17:03:10.098Z,-1.37
2019-03-01T17:05:44.294Z,-1.39
2019-03-01T17:08:18.154Z,-1.32
2019-03-01T17:10:53.887Z,-1.41
2019-03-01T17:13:28.086Z,-1.44
2019-03-01T17:16:01.618Z,-1.46
2019-03-01T17:18:36.417Z,-1.52
2019-03-01T17:21:12.532Z,-1.58
2019-03-01T17:23:45.938Z,-1.66
2019-03-01T17:26:19.629Z,-1.77
2019-03-01T17:28:53.665Z,-1.80
2019-03-01T17:31:27.889Z,-1.85
2019-03-01T17:34:02.111Z,-1.78
2019-03-01T17:36:35.527Z,-1.77
2019-03-01T17:39:09.817Z,-1.84
2019-03-01T17:41:45.590Z,-1.84
2019-03-01T17:44:18.304Z,-1.78
2019-03-01T17:46:53.348Z,-1.78
2019-03-01T17:49:29.722Z,-1.98
2019-03-01T17:52:01.424Z,-1.88
2019-03-01T17:54:36.901Z,-1.92
2019-03-01T17:57:10.930Z,-1.96
2019-03-01T17:59:48.311Z,-2.02
2019-03-01T18:02:22.760Z,-1.99
2019-03-01T18:04:56.571Z,-1.97
2019-03-01T18:07:30.605Z,-2.15
2019-03-01T18:10:04.130Z,-2.23
2019-03-01T18:12:37.694Z,-2.08
2019-03-01T18:15:17.576Z,-1.98
2019-03-01T18:17:52.441Z,-1.98
2019-03-01T18:20:26.471Z,-1.94
2019-03-01T18:23:02.366Z,-1.98
2019-03-01T18:25:35.297Z,-2.00
2019-03-01T18:28:09.508Z,-1.92
2019-03-01T18:30:52.056Z,-1.88
2019-03-01T18:33:27.358Z,-1.85
2019-03-01T18:36:07.963Z,-1.92
2019-03-01T18:38:42.681Z,-1.93
2019-03-01T18:41:18.401Z,-1.88
2019-03-01T18:43:53.699Z,-2.00
2019-03-01T18:46:28.390Z,-1.91
2019-03-01T18:49:02.691Z,-1.90
2019-03-01T18:51:42.292Z,-1.84
2019-03-01T18:54:17.243Z,-1.73
2019-03-01T18:56:51.106Z,-1.80
2019-03-01T18:59:31.820Z,-1.55
2019-03-01T19:02:02.852Z,-1.67
2019-03-01T19:04:39.524Z,-1.82
2019-03-01T19:07:14.061Z,-1.82
2019-03-01T19:09:52.247Z,-1.80
2019-03-01T19:12:26.228Z,-1.75
2019-03-01T19:15:00.451Z,-1.83
2019-03-01T19:17:40.510Z,-1.95
2019-03-01T19:20:32.388Z,-2.05
2019-03-01T19:23:06.714Z,-1.93
2019-03-01T19:25:40.113Z,-1.94
2019-03-01T19:28:13.335Z,-2.02
2019-03-01T19:30:49.054Z,-2.01
2019-03-01T19:33:22.454Z,-2.11
2019-03-01T19:35:56.975Z,-2.14
2019-03-01T19:38:31.025Z,-2.30
2019-03-01T19:41:04.346Z,-2.21
2019-03-01T19:43:37.710Z,-2.12
2019-03-01T19:46:12.610Z,-2.15
2019-03-01T19:48:46.893Z,-2.16
2019-03-01T19:51:20.204Z,-2.23
2019-03-01T19:53:53.832Z,-2.28
2019-03-01T19:56:27.140Z,-2.41
2019-03-01T19:59:02.157Z,-2.49
2019-03-01T20:01:35.452Z,-2.43
2019-03-01T20:04:09.393Z,-2.43
2019-03-01T20:06:43.491Z,-2.34
2019-03-01T20:09:16.961Z,-2.35
2019-03-01T20:11:50.321Z,-2.39
2019-03-01T20:14:23.635Z,-2.38
2019-03-01T20:16:59.005Z,-2.38
2019-03-01T20:19:35.236Z,-2.29
2019-03-01T20:22:10.474Z,-2.28
2019-03-01T20:24:43.885Z,-2.32
2019-03-01T20:27:17.267Z,-2.38
2019-03-01T20:29:52.494Z,-2.33
2019-03-01T20:32:25.181Z,-2.40
2019-03-01T20:34:59.700Z,-2.39
2019-03-01T20:37:33.037Z,-2.51
2019-03-01T20:40:07.457Z,-2.48
2019-03-01T20:42:40.807Z,-2.49
2019-03-01T20:45:29.882Z,-2.58
2019-03-01T20:48:04.014Z,-2.61
2019-03-01T20:50:37.496Z,-2.57
2019-03-01T20:53:13.319Z,-2.62
2019-03-01T20:55:45.553Z,-2.63
2019-03-01T20:58:22.104Z,-2.64
2019-03-01T21:03:58.175Z,-2.55
2019-03-01T21:06:31.603Z,-2.58
2019-03-01T21:09:06.935Z,-2.52
2019-03-01T21:11:41.699Z,-2.59
2019-03-01T21:14:15.102Z,-2.51
2019-03-01T21:16:50.108Z,-2.42
2019-03-01T21:19:23.391Z,-2.38
2019-03-01T21:21:56.730Z,-2.51
2019-03-01T21:24:31.943Z,-2.59
2019-03-01T21:27:04.623Z,-2.66
2019-03-01T21:29:37.831Z,-2.71
2019-03-01T21:32:11.779Z,-2.67
2019-03-01T21:34:45.149Z,-2.86
2019-03-01T21:37:18.438Z,-2.74
2019-03-01T21:39:51.673Z,-2.77
2019-03-01T21:42:24.926Z,-2.67
2019-03-01T21:44:58.200Z,-2.53
2019-03-01T21:47:31.483Z,-2.55
2019-03-01T21:50:07.653Z,-2.58
2019-03-01T21:52:40.102Z,-2.54
2019-03-01T21:55:16.487Z,-2.51
2019-03-01T21:57:50.439Z,-2.60
2019-03-01T22:00:34.738Z,-2.59
2019-03-01T22:03:07.816Z,-2.66
2019-03-01T22:05:41.147Z,-2.76
2019-03-01T22:08:14.327Z,-2.76
2019-03-01T22:10:47.686Z,-2.60
2019-03-01T22:13:20.877Z,-2.61
2019-03-01T22:15:54.195Z,-2.51
2019-03-01T22:18:28.932Z,-2.57
2019-03-01T22:21:02.188Z,-2.74
2019-03-01T22:23:35.444Z,-2.64
2019-03-01T22:26:09.597Z,-2.52
2019-03-01T22:28:43.156Z,-2.50
2019-03-01T22:31:16.406Z,-2.50
2019-03-01T22:33:52.594Z,-2.45
2019-03-01T22:36:25.985Z,-2.43
2019-03-01T22:39:00.639Z,-2.34
2019-03-01T22:41:35.635Z,-2.33
2019-03-01T22:44:08.347Z,-2.23
2019-03-01T22:46:43.085Z,-2.26
2019-03-01T22:49:16.362Z,-2.33
2019-03-01T22:51:52.626Z,-2.24
2019-03-01T22:54:25.417Z,-2.07
2019-03-01T22:56:58.963Z,-2.01
2019-03-01T22:59:32.272Z,-1.83
2019-03-01T23:02:08.105Z,-1.80
2019-03-01T23:04:48.843Z,-1.75
2019-03-01T23:07:26.440Z,-1.64
2019-03-01T23:10:03.549Z,-1.45
2019-03-01T23:12:40.549Z,-0.99
2019-03-01T23:15:14.434Z,-1.03
2019-03-01T23:17:48.314Z,-0.63
2019-03-01T23:20:26.134Z,-0.59
2019-03-01T23:22:57.171Z,-0.52
2019-03-01T23:25:30.478Z,-0.53
2019-03-01T23:28:04.027Z,-0.29
2019-03-01T23:30:43.056Z,1.02
2019-03-01T23:33:14.205Z,1.44
2019-03-01T23:35:53.044Z,1.33
2019-03-01T23:38:24.742Z,1.36
2019-03-01T23:40:58.118Z,1.37
2019-03-01T23:43:31.777Z,1.99
2019-03-01T23:46:05.248Z,1.58
2019-03-01T23:48:38.726Z,1.86
2019-03-01T23:51:22.692Z,2.38
2019-03-01T23:53:56.057Z,3.01
2019-03-01T23:56:30.542Z,3.82
2019-03-01T23:59:05.166Z,4.34
